createdAt,value
2022-07-31T00:01:17.338Z,20.4
2022-07-31T00:11:18.382Z,20.2
2022-07-31T00:21:18.850Z,20.1
2022-07-31T00:51:20.853Z,19.7
2022-07-31T01:01:21.918Z,19.5
2022-07-31T01:21:22.937Z,19.1
2022-07-31T01:31:26.977Z,18.6
2022-07-31T01:41:23.302Z,18.2
2022-07-31T02:01:27.072Z,17.6
2022-07-31T02:11:24.099Z,17.2
2022-07-31T03:11:28.721Z,16.3
2022-07-31T03:31:30.294Z,16.5
2022-07-31T03:41:30.697Z,16.6
2022-07-31T03:51:31.443Z,16.7
2022-07-31T04:01:56.604Z,16.8
2022-07-31T04:11:33.300Z,16.9
2022-07-31T04:21:33.898Z,17.1
2022-07-31T04:31:34.741Z,17.4
2022-07-31T04:41:35.727Z,17.9
2022-07-31T05:21:46.067Z,17.9
2022-07-31T05:31:39.398Z,17.9
2022-07-31T05:41:40.284Z,18.1
2022-07-31T06:11:41.755Z,19
2022-07-31T06:21:42.024Z,19.3
2022-07-31T06:31:42.185Z,19.7
2022-07-31T06:41:42.822Z,20.3
2022-07-31T06:51:43.885Z,20.5
2022-07-31T07:01:44.665Z,20.5
2022-07-31T07:11:44.903Z,20.7
2022-07-31T07:21:50.807Z,20.8
2022-07-31T07:31:51.387Z,21.1
2022-07-31T07:41:52.419Z,21.2
2022-07-31T07:51:58.493Z,21.2
2022-07-31T08:01:54.253Z,21.2
2022-07-31T08:11:55.115Z,21.1
2022-07-31T08:41:56.464Z,21.1
2022-07-31T09:42:02.183Z,21.3
2022-07-31T09:52:00.711Z,21.6
2022-07-31T10:02:01.649Z,21.5
2022-07-31T10:22:02.563Z,21.7
2022-07-31T10:32:02.901Z,21.7
2022-07-31T10:42:03.906Z,22.3
2022-07-31T10:52:04.303Z,23
2022-07-31T11:02:04.633Z,23.2
2022-07-31T11:12:04.912Z,23.1
2022-07-31T11:32:05.569Z,22.7
2022-07-31T11:42:07.318Z,22.7
2022-07-31T11:52:07.077Z,22.5
2022-07-31T12:02:07.382Z,22.5
2022-07-31T12:12:07.577Z,22.6
2022-07-31T12:22:08.309Z,22.9
2022-07-31T12:32:08.681Z,23.4
2022-07-31T12:42:09.389Z,23.7
2022-07-31T12:52:10.155Z,23.6
2022-07-31T13:02:10.500Z,23.7
2022-07-31T13:12:10.668Z,24.3
2022-07-31T13:22:10.953Z,24.7
2022-07-31T13:32:11.317Z,23.9
2022-07-31T13:42:11.629Z,23.7
2022-07-31T13:52:12.116Z,24.3
2022-07-31T14:02:12.927Z,24.6
2022-07-31T14:12:13.804Z,24.5
2022-07-31T14:22:14.425Z,24.8
2022-07-31T14:32:14.918Z,25
2022-07-31T14:42:15.523Z,24.9
2022-07-31T15:02:21.614Z,23.5
2022-07-31T15:12:17.576Z,23.8
2022-07-31T15:22:18.172Z,24
2022-07-31T15:32:18.336Z,24
2022-07-31T15:42:22.843Z,24.2
2022-07-31T16:32:21.192Z,23.5
2022-07-31T16:42:21.615Z,21.7
2022-07-31T16:52:21.914Z,20.7
2022-07-31T17:12:23.748Z,20.3
2022-07-31T17:22:24.803Z,20.2
2022-07-31T17:32:24.986Z,20.3
2022-07-31T17:42:25.222Z,20.3
2022-07-31T18:02:26.334Z,20.4
2022-07-31T18:12:26.617Z,20.4
2022-07-31T18:22:26.794Z,20.2
2022-07-31T18:42:27.971Z,19.5
2022-07-31T18:52:29.026Z,19.4
2022-07-31T19:02:29.704Z,19.3
2022-07-31T19:12:29.811Z,19.2
2022-07-31T19:22:30.521Z,19.2
2022-07-31T19:32:30.686Z,19.2
2022-07-31T19:42:31.164Z,19.2
2022-07-31T19:52:31.993Z,19.3
2022-07-31T20:12:32.612Z,19.3
2022-07-31T21:22:37.012Z,19.2
2022-07-31T21:42:42.605Z,19.2
2022-07-31T21:52:38.385Z,19.2
2022-07-31T22:32:41.981Z,19.1
2022-07-31T22:52:43.636Z,19
2022-07-31T23:02:43.797Z,19
2022-07-31T23:22:44.560Z,19.1
2022-07-31T23:32:45.353Z,19.1
2022-07-31T23:52:46.298Z,19
